createdAt,value
2023-02-04T00:00:39.017Z,101866.34
2023-02-04T00:03:07.611Z,101871.66
2023-02-04T00:05:36.006Z,101883.94
2023-02-04T00:08:07.174Z,101883.84
2023-02-04T00:10:35.718Z,101885.53
2023-02-04T00:13:05.049Z,101897.88
2023-02-04T00:15:33.390Z,101892.97
2023-02-04T00:18:03.438Z,101893.16
2023-02-04T00:20:32.063Z,101898.81
2023-02-04T00:25:44.856Z,101902.97
2023-02-04T00:28:13.161Z,101908.44
2023-02-04T00:30:41.346Z,101925.88
2023-02-04T00:33:11.003Z,101919.13
2023-02-04T00:35:39.278Z,101928.00
2023-02-04T00:38:10.001Z,101932.38
2023-02-04T00:40:38.998Z,101938.78
2023-02-04T00:43:07.377Z,101947.56
2023-02-04T00:45:35.684Z,101944.38
2023-02-04T00:48:03.931Z,101950.06
2023-02-04T00:50:35.092Z,101958.44
2023-02-04T00:53:05.150Z,101962.53
2023-02-04T00:55:33.346Z,101970.69
2023-02-04T00:58:01.609Z,101968.53
2023-02-04T01:00:30.270Z,101972.41
2023-02-04T01:03:00.093Z,101980.47
2023-02-04T01:05:28.386Z,101994.66
2023-02-04T01:07:58.139Z,101986.25
2023-02-04T01:10:26.878Z,101998.72
2023-02-04T01:12:55.157Z,101986.78
2023-02-04T01:15:23.407Z,102002.72
2023-02-04T01:17:51.701Z,101993.31
2023-02-04T01:20:20.193Z,102004.00
2023-02-04T01:22:48.519Z,102028.50
2023-02-04T01:25:21.565Z,102029.47
2023-02-04T01:27:49.824Z,102030.47
2023-02-04T01:30:18.243Z,102035.97
2023-02-04T01:32:46.445Z,102048.19
2023-02-04T01:35:14.858Z,102056.22
2023-02-04T01:37:43.058Z,102046.88
2023-02-04T01:40:14.012Z,102056.50
2023-02-04T01:42:44.671Z,102056.56
2023-02-04T01:45:13.173Z,102068.16
2023-02-04T01:47:42.014Z,102084.84
2023-02-04T01:50:14.163Z,102083.34
2023-02-04T01:52:45.430Z,102084.44
2023-02-04T01:55:16.782Z,102093.19
2023-02-04T01:57:46.986Z,102100.31
2023-02-04T02:00:19.101Z,102108.28
2023-02-04T02:02:50.446Z,102118.81
2023-02-04T02:05:22.020Z,102121.72
2023-02-04T02:07:51.344Z,102114.84
2023-02-04T02:10:20.200Z,102131.56
2023-02-04T02:12:50.591Z,102130.03
2023-02-04T02:15:22.345Z,102137.13
2023-02-04T02:17:51.070Z,102143.41
2023-02-04T02:20:24.187Z,102150.47
2023-02-04T02:23:02.532Z,102152.38
2023-02-04T02:25:32.507Z,102156.94
2023-02-04T02:28:02.924Z,102158.03
2023-02-04T02:30:31.688Z,102174.78
2023-02-04T02:33:00.414Z,102177.63
2023-02-04T02:35:29.963Z,102183.81
2023-02-04T02:37:58.510Z,102180.41
2023-02-04T02:40:27.085Z,102192.78
2023-02-04T02:42:56.939Z,102187.72
2023-02-04T02:45:27.779Z,102189.59
2023-02-04T02:47:57.737Z,102189.00
2023-02-04T02:50:29.323Z,102198.72
2023-02-04T02:52:57.824Z,102201.50
2023-02-04T02:55:28.588Z,102214.75
2023-02-04T02:57:58.809Z,102218.34
2023-02-04T03:00:29.147Z,102217.59
2023-02-04T03:03:01.700Z,102220.41
2023-02-04T03:05:32.658Z,102219.50
2023-02-04T03:08:01.624Z,102214.44
2023-02-04T03:10:30.540Z,102227.50
2023-02-04T03:13:01.511Z,102226.81
2023-02-04T03:15:30.031Z,102224.31
2023-02-04T03:17:58.822Z,102230.59
2023-02-04T03:20:30.180Z,102233.34
2023-02-04T03:22:59.275Z,102238.69
2023-02-04T03:25:28.456Z,102244.16
2023-02-04T03:27:58.515Z,102250.31
2023-02-04T03:30:28.854Z,102249.56
2023-02-04T03:32:57.428Z,102256.56
2023-02-04T03:35:28.657Z,102263.66
2023-02-04T03:37:56.905Z,102268.03
2023-02-04T03:40:25.133Z,102278.47
2023-02-04T03:42:53.336Z,102282.03
2023-02-04T03:45:27.061Z,102283.84
2023-02-04T03:47:58.465Z,102278.91
2023-02-04T03:50:31.017Z,102285.69
2023-02-04T03:52:59.428Z,102292.00
2023-02-04T03:55:27.769Z,102312.88
2023-02-04T03:57:56.018Z,102307.75
2023-02-04T04:00:27.214Z,102307.84
2023-02-04T04:02:55.812Z,102305.28
2023-02-04T04:05:25.822Z,102323.59
2023-02-04T04:07:54.084Z,102318.50
2023-02-04T04:10:22.504Z,102315.91
2023-02-04T04:12:50.753Z,102325.56
2023-02-04T04:15:24.869Z,102329.94
2023-02-04T04:17:53.142Z,102324.00
2023-02-04T04:20:25.513Z,102337.09
2023-02-04T04:22:58.019Z,102332.06
2023-02-04T04:25:26.426Z,102335.63
2023-02-04T04:27:54.716Z,102346.94
2023-02-04T04:30:23.199Z,102346.19
2023-02-04T04:32:51.406Z,102355.03
2023-02-04T04:35:19.581Z,102348.97
2023-02-04T04:37:47.782Z,102348.19
2023-02-04T04:40:17.733Z,102356.94
2023-02-04T04:42:45.980Z,102358.81
2023-02-04T04:45:14.607Z,102373.66
2023-02-04T04:47:43.326Z,102379.75
2023-02-04T04:50:13.117Z,102371.25
2023-02-04T04:52:41.431Z,102375.56
2023-02-04T04:55:10.568Z,102382.63
2023-02-04T04:57:40.448Z,102387.91
2023-02-04T05:00:10.501Z,102390.56
2023-02-04T05:02:38.669Z,102391.53
2023-02-04T05:05:07.622Z,102394.22
2023-02-04T05:07:35.940Z,102413.34
2023-02-04T05:10:04.224Z,102411.59
2023-02-04T05:12:32.757Z,102419.47
2023-02-04T05:15:02.467Z,102419.50
2023-02-04T05:17:31.182Z,102432.56
2023-02-04T05:19:59.433Z,102431.84
2023-02-04T05:22:29.488Z,102441.25
2023-02-04T05:24:57.689Z,102451.72
2023-02-04T05:27:25.985Z,102450.00
2023-02-04T05:29:54.151Z,102446.59
2023-02-04T05:32:26.054Z,102443.97
2023-02-04T05:34:54.291Z,102453.47
2023-02-04T05:37:22.566Z,102446.53
2023-02-04T05:39:50.752Z,102462.16
2023-02-04T05:42:19.074Z,102459.59
2023-02-04T05:44:47.390Z,102459.53
2023-02-04T05:47:15.756Z,102466.50
2023-02-04T05:49:45.725Z,102462.16
2023-02-04T05:52:15.282Z,102456.09
2023-02-04T05:54:43.549Z,102449.16
2023-02-04T05:57:11.853Z,102457.84
2023-02-04T05:59:40.115Z,102447.56
2023-02-04T06:02:08.344Z,102465.72
2023-02-04T06:04:36.722Z,102470.91
2023-02-04T06:07:06.337Z,102466.53
2023-02-04T06:09:34.538Z,102471.78
2023-02-04T06:12:02.835Z,102466.63
2023-02-04T06:14:31.058Z,102467.38
2023-02-04T06:16:59.942Z,102486.47
2023-02-04T06:19:28.149Z,102489.06
2023-02-04T06:21:56.350Z,102483.91
2023-02-04T06:24:26.053Z,102493.53
2023-02-04T06:26:54.320Z,102495.22
2023-02-04T06:29:22.570Z,102494.38
2023-02-04T06:31:51.213Z,102495.28
2023-02-04T06:34:19.684Z,102497.91
2023-02-04T06:36:48.086Z,102506.63
2023-02-04T06:39:16.310Z,102510.13
2023-02-04T06:41:45.992Z,102517.97
2023-02-04T06:44:14.243Z,102514.47
2023-02-04T06:46:42.660Z,102526.56
2023-02-04T06:49:10.964Z,102529.25
2023-02-04T06:51:39.825Z,102530.94
2023-02-04T06:54:08.132Z,102538.72
2023-02-04T06:56:38.049Z,102543.94
2023-02-04T06:59:07.677Z,102550.09
2023-02-04T07:01:35.963Z,102558.75
2023-02-04T07:04:04.334Z,102560.53
2023-02-04T07:06:32.612Z,102562.25
2023-02-04T07:09:00.882Z,102557.94
2023-02-04T07:11:29.172Z,102564.03
2023-02-04T07:13:59.324Z,102570.97
2023-02-04T07:16:29.848Z,102576.16
2023-02-04T07:18:58.172Z,102575.31
2023-02-04T07:21:27.150Z,102584.06
2023-02-04T07:23:55.394Z,102590.13
2023-02-04T07:26:23.725Z,102589.22
2023-02-04T07:28:52.363Z,102596.97
2023-02-04T07:31:20.784Z,102596.97
2023-02-04T07:33:52.859Z,102609.00
2023-02-04T07:36:21.128Z,102601.09
2023-02-04T07:38:49.412Z,102608.88
2023-02-04T07:41:17.591Z,102604.56
2023-02-04T07:43:46.116Z,102610.47
2023-02-04T07:46:14.490Z,102612.94
2023-02-04T07:48:43.911Z,102612.81
2023-02-04T07:51:18.362Z,102619.63
2023-02-04T07:53:46.742Z,102618.63
2023-02-04T07:56:14.975Z,102622.88
2023-02-04T07:58:43.194Z,102626.22
2023-02-04T08:01:11.474Z,102628.53
2023-02-04T08:03:41.746Z,102635.34
2023-02-04T08:06:10.234Z,102630.88
2023-02-04T08:08:40.008Z,102635.94
2023-02-04T08:11:08.221Z,102638.34
2023-02-04T08:13:36.501Z,102635.56
2023-02-04T08:16:04.851Z,102633.69
2023-02-04T08:18:33.100Z,102630.97
2023-02-04T08:21:03.328Z,102643.81
2023-02-04T08:23:31.645Z,102645.28
2023-02-04T08:26:01.630Z,102639.88
2023-02-04T08:28:29.893Z,102654.47
2023-02-04T08:30:58.114Z,102654.44
2023-02-04T08:33:26.363Z,102658.53
2023-02-04T08:35:54.793Z,102659.31
2023-02-04T08:38:23.057Z,102663.50
2023-02-04T08:40:51.514Z,102669.38
2023-02-04T08:43:21.136Z,102678.03
2023-02-04T08:45:49.736Z,102675.22
2023-02-04T08:48:18.852Z,102688.94
2023-02-04T08:50:47.120Z,102685.28
2023-02-04T08:53:15.308Z,102696.38
2023-02-04T08:55:43.593Z,102696.06
2023-02-04T08:58:12.061Z,102701.00
2023-02-04T09:00:41.679Z,102707.81
2023-02-04T09:03:09.940Z,102717.38
2023-02-04T09:05:38.240Z,102718.91
2023-02-04T09:08:06.639Z,102722.41
2023-02-04T09:10:35.085Z,102735.47
2023-02-04T09:13:03.377Z,102731.19
2023-02-04T09:15:31.567Z,102738.09
2023-02-04T09:18:11.596Z,102730.44
2023-02-04T09:20:39.810Z,102738.81
2023-02-04T09:23:09.140Z,102737.00
2023-02-04T09:25:37.558Z,102735.94
2023-02-04T09:28:06.261Z,102740.25
2023-02-04T09:30:34.935Z,102744.53
2023-02-04T09:33:05.014Z,102743.59
2023-02-04T09:35:33.178Z,102736.41
2023-02-04T09:38:02.304Z,102735.47
2023-02-04T09:40:35.406Z,102747.63
2023-02-04T09:43:05.722Z,102742.28
2023-02-04T09:45:36.764Z,102749.13
2023-02-04T09:48:10.270Z,102758.63
2023-02-04T09:50:38.881Z,102754.03
2023-02-04T09:53:08.483Z,102758.16
2023-02-04T09:55:40.849Z,102763.19
2023-02-04T09:58:16.147Z,102772.38
2023-02-04T10:00:45.665Z,102778.19
2023-02-04T10:03:18.855Z,102772.72
2023-02-04T10:05:48.252Z,102773.56
2023-02-04T10:08:18.554Z,102779.75
2023-02-04T10:10:47.974Z,102784.88
2023-02-04T10:13:19.745Z,102785.69
2023-02-04T10:15:49.958Z,102798.66
2023-02-04T10:18:25.579Z,102799.28
2023-02-04T10:20:56.852Z,102806.81
2023-02-04T10:23:25.130Z,102796.19
2023-02-04T10:25:53.413Z,102802.75
2023-02-04T10:28:21.697Z,102800.13
2023-02-04T10:30:50.044Z,102803.66
2023-02-04T10:33:25.530Z,102800.88
2023-02-04T10:35:56.533Z,102799.81
2023-02-04T10:38:25.792Z,102798.69
2023-02-04T10:41:02.407Z,102807.38
2023-02-04T10:43:32.171Z,102813.34
2023-02-04T10:46:03.345Z,102813.00
2023-02-04T10:48:41.886Z,102807.47
2023-02-04T10:51:14.081Z,102814.28
2023-02-04T10:54:01.768Z,102815.09
2023-02-04T10:56:32.196Z,102817.59
2023-02-04T10:59:00.424Z,102817.41
2023-02-04T11:01:31.063Z,102822.84
2023-02-04T11:04:00.871Z,102821.09
2023-02-04T11:06:29.989Z,102817.59
2023-02-04T11:09:00.725Z,102819.31
2023-02-04T11:11:29.414Z,102823.50
2023-02-04T11:14:04.410Z,102830.47
2023-02-04T11:16:35.716Z,102833.78
2023-02-04T11:19:07.335Z,102837.19
2023-02-04T11:21:45.944Z,102837.34
2023-02-04T11:24:26.249Z,102842.66
2023-02-04T11:27:06.999Z,102842.06
2023-02-04T11:29:38.421Z,102846.34
2023-02-04T11:32:08.956Z,102856.06
2023-02-04T11:34:51.488Z,102844.38
2023-02-04T11:37:35.717Z,102846.78
2023-02-04T11:40:23.944Z,102840.38
2023-02-04T11:42:58.594Z,102835.81
2023-02-04T11:45:31.253Z,102839.94
2023-02-04T11:48:04.168Z,102838.00
2023-02-04T11:50:35.583Z,102836.78
2023-02-04T11:53:03.941Z,102845.31
2023-02-04T11:55:36.292Z,102839.03
2023-02-04T11:58:05.601Z,102843.13
2023-02-04T12:00:35.206Z,102845.31
2023-02-04T12:03:08.003Z,102847.06
2023-02-04T12:05:43.405Z,102848.25
2023-02-04T12:08:14.189Z,102845.81
2023-02-04T12:10:50.369Z,102848.59
2023-02-04T12:13:23.767Z,102847.91
2023-02-04T12:16:00.507Z,102834.88
2023-02-04T12:18:29.711Z,102837.41
2023-02-04T12:21:00.372Z,102839.13
2023-02-04T12:23:30.749Z,102838.25
2023-02-04T12:25:59.964Z,102838.06
2023-02-04T12:28:29.200Z,102838.91
2023-02-04T12:30:58.735Z,102838.00
2023-02-04T12:33:27.616Z,102840.38
2023-02-04T12:35:58.592Z,102840.22
2023-02-04T12:38:27.741Z,102835.94
2023-02-04T12:41:00.787Z,102829.75
2023-02-04T12:43:29.048Z,102828.91
2023-02-04T12:45:57.332Z,102841.81
2023-02-04T12:48:26.177Z,102841.72
2023-02-04T12:50:54.546Z,102834.63
2023-02-04T12:53:24.305Z,102845.78
2023-02-04T12:55:52.591Z,102837.91
2023-02-04T12:58:23.001Z,102843.88
2023-02-04T13:00:51.658Z,102843.44
2023-02-04T13:03:19.858Z,102852.66
2023-02-04T13:05:48.052Z,102849.88
2023-02-04T13:08:16.234Z,102861.28
2023-02-04T13:10:50.242Z,102858.88
2023-02-04T13:13:18.471Z,102860.38
2023-02-04T13:15:46.891Z,102849.75
2023-02-04T13:18:17.355Z,102852.38
2023-02-04T13:20:46.126Z,102853.13
2023-02-04T13:23:14.404Z,102845.06
2023-02-04T13:25:43.891Z,102852.59
2023-02-04T13:28:14.107Z,102855.94
2023-02-04T13:30:42.506Z,102848.06
2023-02-04T13:33:10.827Z,102851.47
2023-02-04T13:35:39.367Z,102847.22
2023-02-04T13:38:07.537Z,102848.91
2023-02-04T13:40:35.722Z,102855.03
2023-02-04T13:43:03.992Z,102850.69
2023-02-04T13:45:35.184Z,102849.03
2023-02-04T13:48:03.625Z,102846.47
2023-02-04T13:50:35.434Z,102862.25
2023-02-04T13:53:03.672Z,102857.84
2023-02-04T13:55:32.251Z,102854.25
2023-02-04T13:58:00.622Z,102840.19
2023-02-04T14:00:29.125Z,102854.16
2023-02-04T14:02:58.817Z,102850.88
2023-02-04T14:05:29.657Z,102845.69
2023-02-04T14:07:57.928Z,102842.34
2023-02-04T14:10:27.349Z,102847.59
2023-02-04T14:12:55.562Z,102838.16
2023-02-04T14:15:23.789Z,102833.75
2023-02-04T14:17:52.181Z,102840.78
2023-02-04T14:20:23.446Z,102838.22
2023-02-04T14:22:51.640Z,102842.63
2023-02-04T14:25:20.341Z,102846.22
2023-02-04T14:27:48.594Z,102848.78
2023-02-04T14:30:19.155Z,102850.56
2023-02-04T14:32:47.476Z,102848.03
2023-02-04T14:35:17.785Z,102860.31
2023-02-04T14:37:47.488Z,102857.97
2023-02-04T14:40:17.616Z,102864.13
2023-02-04T14:42:45.953Z,102860.72
2023-02-04T14:45:16.114Z,102852.09
2023-02-04T14:47:44.443Z,102862.72
2023-02-04T14:50:16.341Z,102858.53
2023-02-04T14:52:44.911Z,102846.44
2023-02-04T14:55:15.429Z,102854.44
2023-02-04T14:57:43.691Z,102846.69
2023-02-04T15:00:13.362Z,102846.78
2023-02-04T15:02:42.519Z,102843.41
2023-02-04T15:05:11.466Z,102833.97
2023-02-04T15:07:39.891Z,102841.25
2023-02-04T15:10:09.200Z,102838.66
2023-02-04T15:12:38.920Z,102833.59
2023-02-04T15:15:07.871Z,102832.94
2023-02-04T15:17:36.091Z,102837.47
2023-02-04T15:20:04.792Z,102837.69
2023-02-04T15:22:33.613Z,102842.41
2023-02-04T15:25:01.930Z,102840.00
2023-02-04T15:27:30.699Z,102850.75
2023-02-04T15:30:00.317Z,102849.19
2023-02-04T15:32:28.611Z,102844.31
2023-02-04T15:34:56.867Z,102854.09
2023-02-04T15:37:25.843Z,102856.13
2023-02-04T15:39:56.801Z,102855.53
2023-02-04T15:42:25.229Z,102849.69
2023-02-04T15:44:55.452Z,102842.88
2023-02-04T15:47:27.401Z,102844.84
2023-02-04T15:49:57.245Z,102847.78
2023-02-04T15:52:26.034Z,102850.63
2023-02-04T15:54:54.762Z,102845.59
2023-02-04T15:57:23.074Z,102858.00
2023-02-04T15:59:51.320Z,102849.47
2023-02-04T16:02:20.025Z,102849.66
2023-02-04T16:04:50.400Z,102856.78
2023-02-04T16:07:18.681Z,102861.25
2023-02-04T16:09:46.945Z,102865.84
2023-02-04T16:12:15.188Z,102868.69
2023-02-04T16:14:43.456Z,102868.94
2023-02-04T16:17:11.868Z,102875.22
2023-02-04T16:19:40.100Z,102878.91
2023-02-04T16:22:09.923Z,102879.97
2023-02-04T16:24:38.727Z,102880.09
2023-02-04T16:27:07.362Z,102881.09
2023-02-04T16:29:35.635Z,102875.13
2023-02-04T16:32:03.812Z,102870.00
2023-02-04T16:34:33.748Z,102870.13
2023-02-04T16:37:01.980Z,102869.31
2023-02-04T16:39:31.600Z,102867.69
2023-02-04T16:41:59.812Z,102862.59
2023-02-04T16:44:29.906Z,102868.00
2023-02-04T16:46:58.112Z,102877.69
2023-02-04T16:49:26.354Z,102871.63
2023-02-04T16:51:56.160Z,102877.00
2023-02-04T16:54:24.386Z,102874.59
2023-02-04T16:56:55.494Z,102877.38
2023-02-04T16:59:24.298Z,102884.53
2023-02-04T17:01:52.863Z,102877.75
2023-02-04T17:04:21.997Z,102880.53
2023-02-04T17:06:51.061Z,102890.28
2023-02-04T17:09:19.493Z,102884.38
2023-02-04T17:11:48.102Z,102881.91
2023-02-04T17:14:17.837Z,102872.41
2023-02-04T17:16:47.217Z,102871.66
2023-02-04T17:19:19.175Z,102879.41
2023-02-04T17:21:48.846Z,102878.63
2023-02-04T17:24:17.086Z,102879.50
2023-02-04T17:26:47.634Z,102881.31
2023-02-04T17:29:18.538Z,102873.69
2023-02-04T17:31:47.189Z,102881.56
2023-02-04T17:34:15.554Z,102876.41
2023-02-04T17:36:43.736Z,102864.50
2023-02-04T17:39:12.273Z,102870.53
2023-02-04T17:41:40.471Z,102879.34
2023-02-04T17:44:08.726Z,102884.63
2023-02-04T17:46:38.393Z,102873.41
2023-02-04T17:49:06.648Z,102870.09
2023-02-04T17:51:35.327Z,102873.63
2023-02-04T17:54:03.531Z,102877.19
2023-02-04T17:56:31.856Z,102873.81
2023-02-04T17:59:00.316Z,102872.22
2023-02-04T18:01:28.623Z,102874.00
2023-02-04T18:03:59.354Z,102877.59
2023-02-04T18:06:29.290Z,102875.13
2023-02-04T18:09:02.006Z,102875.16
2023-02-04T18:11:37.186Z,102875.25
2023-02-04T18:14:14.462Z,102878.00
2023-02-04T18:16:42.837Z,102872.88
2023-02-04T18:19:18.918Z,102875.63
2023-02-04T18:21:48.074Z,102880.97
2023-02-04T18:24:19.528Z,102882.81
2023-02-04T18:26:50.319Z,102883.78
2023-02-04T18:29:33.667Z,102876.94
2023-02-04T18:32:04.470Z,102870.09
2023-02-04T18:34:38.725Z,102878.00
2023-02-04T18:37:31.930Z,102880.69
2023-02-04T18:40:22.309Z,102874.75
2023-02-04T18:42:50.931Z,102867.00
2023-02-04T18:45:28.057Z,102867.91
2023-02-04T18:47:59.399Z,102866.31
2023-02-04T18:50:32.005Z,102871.59
2023-02-04T18:53:09.882Z,102882.03
2023-02-04T18:55:39.242Z,102873.34
2023-02-04T18:58:26.415Z,102869.09
2023-02-04T19:00:59.640Z,102868.28
2023-02-04T19:03:30.059Z,102874.38
2023-02-04T19:06:02.082Z,102863.09
2023-02-04T19:08:33.405Z,102879.66
2023-02-04T19:11:01.769Z,102871.03
2023-02-04T19:13:40.194Z,102868.47
2023-02-04T19:16:28.287Z,102867.63
2023-02-04T19:18:56.729Z,102863.31
2023-02-04T19:21:29.223Z,102857.28
2023-02-04T19:24:03.057Z,102868.63
2023-02-04T19:26:35.634Z,102862.63
2023-02-04T19:29:37.249Z,102866.13
2023-02-04T19:32:27.480Z,102871.38
2023-02-04T19:34:58.864Z,102868.84
2023-02-04T19:37:35.134Z,102870.63
2023-02-04T19:40:03.569Z,102866.38
2023-02-04T19:42:35.541Z,102870.75
2023-02-04T19:45:15.177Z,102865.63
2023-02-04T19:47:46.476Z,102857.88
2023-02-04T19:50:33.962Z,102856.31
2023-02-04T19:53:06.584Z,102862.47
2023-02-04T19:55:38.187Z,102859.91
2023-02-04T19:58:22.046Z,102862.63
2023-02-04T20:00:59.244Z,102867.00
2023-02-04T20:03:36.952Z,102866.22
2023-02-04T20:06:30.338Z,102866.28
2023-02-04T20:09:12.310Z,102856.84
2023-02-04T20:12:06.120Z,102856.84
2023-02-04T20:14:58.459Z,102846.47
2023-02-04T20:17:41.576Z,102847.38
2023-02-04T20:20:22.571Z,102848.25
2023-02-04T20:22:53.196Z,102845.72
2023-02-04T20:25:47.499Z,102845.75
2023-02-04T20:28:22.373Z,102855.44
2023-02-04T20:30:52.508Z,102844.25
2023-02-04T20:33:30.534Z,102837.44
2023-02-04T20:36:30.174Z,102838.34
2023-02-04T20:39:15.573Z,102844.44
2023-02-04T20:41:45.244Z,102846.31
2023-02-04T20:44:18.148Z,102836.88
2023-02-04T20:46:47.633Z,102840.41
2023-02-04T20:49:27.140Z,102835.25
2023-02-04T20:52:00.460Z,102846.53
2023-02-04T20:54:31.359Z,102831.81
2023-02-04T20:57:16.332Z,102835.28
2023-02-04T20:59:45.275Z,102831.81
2023-02-04T21:02:18.459Z,102812.88
2023-02-04T21:04:52.179Z,102807.81
2023-02-04T21:07:22.603Z,102807.91
2023-02-04T21:09:51.783Z,102807.09
2023-02-04T21:12:21.921Z,102805.38
2023-02-04T21:14:50.416Z,102798.47
2023-02-04T21:17:19.042Z,102795.84
2023-02-04T21:19:47.249Z,102800.13
2023-02-04T21:22:15.581Z,102787.16
2023-02-04T21:24:44.796Z,102793.34
2023-02-04T21:27:13.116Z,102795.94
2023-02-04T21:29:42.732Z,102795.94
2023-02-04T21:32:11.120Z,102801.09
2023-02-04T21:34:39.416Z,102799.38
2023-02-04T21:37:09.109Z,102789.78
2023-02-04T21:39:37.354Z,102788.00
2023-02-04T21:42:11.592Z,102779.31
2023-02-04T21:44:40.159Z,102770.63
2023-02-04T21:47:10.226Z,102774.09
2023-02-04T21:49:41.971Z,102774.13
2023-02-04T21:52:11.986Z,102775.81
2023-02-04T21:54:41.899Z,102777.53
2023-02-04T21:57:10.172Z,102771.38
2023-02-04T21:59:38.575Z,102765.28
2023-02-04T22:02:07.004Z,102757.41
2023-02-04T22:04:36.665Z,102756.53
2023-02-04T22:07:04.967Z,102759.94
2023-02-04T22:09:33.142Z,102752.16
2023-02-04T22:12:02.479Z,102762.53
2023-02-04T22:14:30.717Z,102761.69
2023-02-04T22:16:58.892Z,102759.13
2023-02-04T22:19:27.123Z,102759.13
2023-02-04T22:21:56.783Z,102755.66
2023-02-04T22:24:25.784Z,102755.59
2023-02-04T22:26:54.002Z,102747.84
2023-02-04T22:29:25.089Z,102746.97
2023-02-04T22:31:53.341Z,102756.34
2023-02-04T22:34:22.407Z,102745.88
2023-02-04T22:36:50.650Z,102746.69
2023-02-04T22:39:20.757Z,102750.06
2023-02-04T22:41:48.982Z,102750.84
2023-02-04T22:44:17.628Z,102757.75
2023-02-04T22:46:47.520Z,102748.13
2023-02-04T22:49:16.675Z,102737.69
2023-02-04T22:51:45.672Z,102734.94
2023-02-04T22:54:14.286Z,102732.25
2023-02-04T22:56:43.949Z,102738.19
2023-02-04T22:59:12.607Z,102734.63
2023-02-04T23:01:41.829Z,102741.44
2023-02-04T23:04:10.078Z,102731.69
2023-02-04T23:06:38.723Z,102731.53
2023-02-04T23:09:07.048Z,102727.94
2023-02-04T23:11:35.295Z,102732.03
2023-02-04T23:14:04.969Z,102733.63
2023-02-04T23:16:33.291Z,102726.59
2023-02-04T23:19:01.513Z,102731.56
2023-02-04T23:21:29.865Z,102722.72
2023-02-04T23:23:58.264Z,102712.28
2023-02-04T23:26:26.644Z,102714.81
2023-02-04T23:28:54.801Z,102711.16
2023-02-04T23:31:24.610Z,102704.16
2023-02-04T23:33:53.087Z,102703.22
2023-02-04T23:36:21.621Z,102684.03
2023-02-04T23:38:49.813Z,102684.03
2023-02-04T23:41:18.084Z,102684.75
2023-02-04T23:43:46.359Z,102673.47
2023-02-04T23:46:14.715Z,102674.22
2023-02-04T23:48:45.055Z,102666.34
2023-02-04T23:51:14.824Z,102664.53
2023-02-04T23:53:43.011Z,102663.63
2023-02-04T23:56:11.310Z,102659.16
2023-02-04T23:58:39.900Z,102654.69
